Time;durP1;ratioP1;P1;durP2;ratioP2;P2;SDS_P1;SDS_P2;PMS_P1;PMS_P2;Temp;Humidity;BMP_temperature;BMP_pressure;BME280_temperature;BME280_humidity;BME280_pressure;Samples;Min_cycle;Max_cycle;Signal;HPM_P1;HPM_P2
2024/01/18 00:02:17;;;;;;;23.00;13.95;;;;;;;1.67;100.00;100206.75;5023504;28;20428;-84
2024/01/18 00:04:43;;;;;;;26.67;14.75;;;;;;;1.71;100.00;100207.84;5030541;28;20033;-81
2024/01/18 00:07:08;;;;;;;24.80;14.32;;;;;;;1.45;100.00;100171.31;5029738;28;20467;-81
2024/01/18 00:09:34;;;;;;;23.13;13.82;;;;;;;1.72;100.00;100197.75;5029380;28;20549;-79
2024/01/18 00:11:59;;;;;;;20.80;13.43;;;;;;;1.63;100.00;100176.75;5029771;28;20058;-80
2024/01/18 00:14:25;;;;;;;23.23;13.45;;;;;;;1.64;100.00;100191.25;5029376;28;20703;-79
2024/01/18 00:16:50;;;;;;;29.95;18.05;;;;;;;1.31;100.00;100126.25;5028815;28;20099;-78
2024/01/18 00:19:16;;;;;;;26.23;14.90;;;;;;;1.38;100.00;100136.94;5029230;28;20040;-74
2024/01/18 00:21:41;;;;;;;29.52;18.67;;;;;;;1.70;100.00;100175.53;5029723;28;20044;-79
2024/01/18 00:24:07;;;;;;;26.38;16.20;;;;;;;1.75;100.00;100176.72;5028073;28;20041;-81
2024/01/18 00:26:32;;;;;;;28.65;17.42;;;;;;;1.70;100.00;100173.00;5029287;28;20091;-77
2024/01/18 00:29:00;;;;;;;30.95;18.90;;;;;;;1.70;100.00;100171.31;5028866;28;20468;-73
2024/01/18 00:31:25;;;;;;;37.85;19.52;;;;;;;1.82;100.00;100208.56;5022010;28;20091;-75
2024/01/18 00:33:52;;;;;;;27.58;15.00;;;;;;;1.71;100.00;100206.16;5028866;28;20037;-75
2024/01/18 00:36:18;;;;;;;22.80;14.20;;;;;;;1.67;100.00;100204.22;5029264;28;20026;-75
2024/01/18 00:38:44;;;;;;;25.95;15.10;;;;;;;1.59;100.00;100193.47;5029630;28;20377;-85
2024/01/18 00:41:09;;;;;;;27.42;16.50;;;;;;;1.74;100.00;100208.91;5029024;28;20539;-83
2024/01/18 00:43:35;;;;;;;24.15;16.48;;;;;;;1.80;100.00;100207.59;5027963;28;20022;-79
2024/01/18 00:46:04;;;;;;;25.13;15.77;;;;;;;1.53;100.00;100143.84;5029894;28;20786;-81
2024/01/18 00:48:30;;;;;;;23.42;15.75;;;;;;;1.79;100.00;100191.41;5027834;28;20395;-83
2024/01/18 00:50:56;;;;;;;24.70;15.70;;;;;;;1.69;100.00;100169.53;5030147;28;20064;-82
2024/01/18 00:53:22;;;;;;;23.65;12.75;;;;;;;1.57;100.00;100130.56;4986986;28;20035;-86
2024/01/18 00:55:47;;;;;;;23.95;14.60;;;;;;;1.84;100.00;100164.59;4987354;28;20049;-85
2024/01/18 00:58:13;;;;;;;20.35;12.80;;;;;;;1.75;100.00;100138.56;4986567;28;20054;-84
2024/01/18 01:00:39;;;;;;;21.60;12.27;;;;;;;1.63;100.00;100112.28;4987522;28;20085;-81
2024/01/18 01:03:04;;;;;;;24.42;13.73;;;;;;;1.86;100.00;100129.97;4970458;28;20077;-81
2024/01/18 01:05:30;;;;;;;24.05;14.30;;;;;;;2.13;100.00;100175.88;4970790;28;20543;-82
2024/01/18 01:07:56;;;;;;;23.33;13.70;;;;;;;2.13;100.00;100172.41;4987234;28;20039;-79
2024/01/18 01:10:23;;;;;;;20.70;12.75;;;;;;;1.82;100.00;100122.91;4987889;28;20038;-79
2024/01/18 01:12:48;;;;;;;24.15;14.55;;;;;;;2.01;100.00;100140.28;4985869;28;20045;-76
2024/01/18 01:15:14;;;;;;;25.13;14.88;;;;;;;2.15;100.00;100155.59;4985332;28;20532;-80
2024/01/18 01:17:39;;;;;;;20.90;13.13;;;;;;;1.96;100.00;100128.91;4987159;28;20050;-77
2024/01/18 01:20:09;;;;;;;22.10;13.35;;;;;;;2.07;100.00;100140.69;4970975;28;20043;-78
2024/01/18 01:22:35;;;;;;;22.95;13.85;;;;;;;1.24;100.00;99988.50;4929376;29;20657;-76
2024/01/18 01:25:00;;;;;;;23.77;13.63;;;;;;;2.09;100.00;100116.22;4958762;28;20055;-77
2024/01/18 01:27:26;;;;;;;22.33;13.15;;;;;;;1.96;100.00;100105.09;4967464;28;20054;-77
2024/01/18 01:29:51;;;;;;;21.23;13.40;;;;;;;2.14;100.00;100133.44;4982848;28;20043;-76
2024/01/18 01:32:17;;;;;;;20.08;13.55;;;;;;;2.09;100.00;100131.50;4987618;28;20092;-76
2024/01/18 01:34:43;;;;;;;20.83;13.88;;;;;;;1.90;100.00;100128.50;4971286;28;20053;-75
2024/01/18 01:37:08;;;;;;;21.17;13.88;;;;;;;1.92;100.00;100120.19;4954578;28;20046;-76
2024/01/18 01:39:34;;;;;;;22.40;13.27;;;;;;;1.93;100.00;100124.50;4986964;28;20037;-76
2024/01/18 01:42:00;;;;;;;23.35;14.32;;;;;;;1.86;100.00;100119.78;4970802;28;20053;-76
2024/01/18 01:44:25;;;;;;;28.40;14.30;;;;;;;1.73;100.00;100092.66;4987984;28;20030;-80
2024/01/18 01:46:51;;;;;;;22.27;13.73;;;;;;;1.95;100.00;100114.41;4987209;28;20436;-76
2024/01/18 01:49:16;;;;;;;19.30;12.80;;;;;;;2.00;100.00;100114.72;4986992;28;20405;-76
2024/01/18 01:51:48;;;;;;;24.73;15.63;;;;;;;1.88;100.00;100089.31;4978752;28;20038;-76
2024/01/18 01:54:19;;;;;;;22.33;14.68;;;;;;;2.02;100.00;100106.41;4986916;28;20104;-77
2024/01/18 01:56:51;;;;;;;20.88;14.15;;;;;;;2.04;100.00;100099.72;4986648;28;20038;-77
2024/01/18 01:59:17;;;;;;;26.02;15.00;;;;;;;1.59;100.00;100012.84;4992291;28;20533;-77
2024/01/18 02:01:44;;;;;;;24.13;14.27;;;;;;;1.71;100.00;100027.16;5025777;28;20090;-76
2024/01/18 02:04:11;;;;;;;22.70;14.85;;;;;;;1.94;100.00;100079.53;5027436;28;20021;-77
2024/01/18 02:06:38;;;;;;;26.30;13.45;;;;;;;2.02;100.00;100088.56;5028564;28;20030;-76
2024/01/18 02:09:05;;;;;;;23.58;13.55;;;;;;;2.02;100.00;100080.94;5028236;28;20037;-77
2024/01/18 02:11:31;;;;;;;28.20;15.55;;;;;;;2.02;100.00;100078.41;5028752;28;20029;-76
2024/01/18 02:13:57;;;;;;;24.42;14.38;;;;;;;1.68;100.00;100015.09;5031816;28;20059;-76
2024/01/18 02:16:23;;;;;;;21.73;13.30;;;;;;;2.06;100.00;100075.25;5033032;28;20124;-76
2024/01/18 02:18:49;;;;;;;23.40;13.77;;;;;;;1.89;100.00;100060.56;5032615;28;20116;-76
2024/01/18 02:21:15;;;;;;;23.42;14.18;;;;;;;1.73;100.00;100034.13;5032375;28;20403;-77
2024/01/18 02:23:47;;;;;;;27.45;15.45;;;;;;;1.87;100.00;100067.19;5032736;28;20527;-76
2024/01/18 02:26:13;;;;;;;24.52;14.75;;;;;;;1.40;100.00;99989.53;5032087;28;20033;-77
2024/01/18 02:28:57;;;;;;;26.67;16.25;;;;;;;1.96;100.00;100074.53;5030516;28;20038;-77
2024/01/18 02:31:23;;;;;;;25.58;16.73;;;;;;;1.95;100.00;100066.03;5030162;28;20040;-77
2024/01/18 02:33:49;;;;;;;26.55;15.50;;;;;;;1.94;100.00;100060.09;5032102;28;20530;-78
2024/01/18 02:36:15;;;;;;;25.15;15.98;;;;;;;1.95;100.00;100060.94;5031928;28;20037;-76
2024/01/18 02:38:42;;;;;;;23.02;15.38;;;;;;;1.94;100.00;100056.63;5031006;28;20095;-77
2024/01/18 02:41:07;;;;;;;25.20;14.50;;;;;;;1.96;100.00;100061.81;5031690;28;20029;-76
2024/01/18 02:43:33;;;;;;;24.55;14.75;;;;;;;1.73;100.00;100034.13;5031620;28;20167;-76
2024/01/18 02:45:59;;;;;;;23.73;15.05;;;;;;;1.84;100.00;100046.66;5031754;28;20156;-76
2024/01/18 02:48:25;;;;;;;27.25;15.32;;;;;;;1.92;100.00;100058.22;5031527;28;20467;-77
2024/01/18 02:50:51;;;;;;;24.15;15.43;;;;;;;1.80;100.00;100040.47;5032114;28;20547;-77
2024/01/18 02:53:20;;;;;;;23.83;13.85;;;;;;;1.97;100.00;100050.84;5031726;28;20042;-77
2024/01/18 02:55:45;;;;;;;24.13;15.05;;;;;;;1.89;100.00;100061.41;5031914;28;20037;-77
2024/01/18 02:58:11;;;;;;;21.00;13.95;;;;;;;1.70;100.00;100050.84;5031161;28;20125;-77
2024/01/18 03:00:38;;;;;;;22.02;14.57;;;;;;;1.63;100.00;100052.09;5032141;28;20037;-82
2024/01/18 03:03:04;;;;;;;26.75;13.98;;;;;;;1.70;100.00;100054.25;5031621;28;20457;-77
2024/01/18 03:05:30;;;;;;;24.33;14.40;;;;;;;1.80;100.00;100053.19;5029782;28;20415;-77
2024/01/18 03:07:56;;;;;;;25.15;15.95;;;;;;;1.89;100.00;100051.25;5031221;28;20045;-76
2024/01/18 03:10:22;;;;;;;22.00;15.15;;;;;;;1.84;100.00;100034.78;5030844;28;20488;-77
2024/01/18 03:12:47;;;;;;;21.55;15.57;;;;;;;1.87;100.00;100036.66;5031234;28;20488;-78
2024/01/18 03:15:13;;;;;;;22.92;15.20;;;;;;;1.87;100.00;100037.56;5032048;28;20397;-77
2024/01/18 03:17:39;;;;;;;24.55;15.13;;;;;;;1.86;100.00;100034.91;5030861;28;20037;-77
2024/01/18 03:20:07;;;;;;;27.85;15.55;;;;;;;1.99;100.00;100042.53;5031926;28;20114;-78
2024/01/18 03:22:39;;;;;;;23.17;15.02;;;;;;;1.97;100.00;100039.03;5031000;28;20515;-77
2024/01/18 03:25:05;;;;;;;22.08;15.60;;;;;;;1.83;100.00;100025.38;5030652;28;20474;-76
2024/01/18 03:27:30;;;;;;;22.17;14.48;;;;;;;1.85;100.00;100017.88;5029627;28;20121;-77
2024/01/18 03:29:56;;;;;;;23.48;15.18;;;;;;;1.65;100.00;99981.84;5031295;28;20440;-77
2024/01/18 03:32:22;;;;;;;24.17;15.23;;;;;;;2.06;100.00;100039.59;5030676;28;20111;-75
2024/01/18 03:34:47;;;;;;;22.55;14.98;;;;;;;2.06;100.00;100044.69;5031752;28;20068;-77
2024/01/18 03:37:13;;;;;;;25.00;14.55;;;;;;;2.09;100.00;100044.91;5030416;28;20120;-77
2024/01/18 03:39:38;;;;;;;23.58;15.43;;;;;;;2.14;100.00;100046.84;5031075;28;20092;-76
2024/01/18 03:42:05;;;;;;;25.25;14.38;;;;;;;2.16;100.00;100040.22;5030666;28;20025;-76
2024/01/18 03:44:33;;;;;;;25.95;15.02;;;;;;;2.23;100.00;100040.69;5029570;28;20116;-77
2024/01/18 03:46:59;;;;;;;22.83;15.68;;;;;;;2.21;100.00;100044.78;5029428;28;20090;-77
2024/01/18 03:49:25;;;;;;;23.88;15.40;;;;;;;2.20;100.00;100044.69;5031651;28;20057;-77
2024/01/18 03:51:51;;;;;;;22.75;15.50;;;;;;;2.13;100.00;100040.00;5030549;28;20076;-77
2024/01/18 03:54:18;;;;;;;23.50;15.93;;;;;;;2.17;100.00;100047.94;5030686;28;20044;-75
2024/01/18 03:56:43;;;;;;;26.42;15.85;;;;;;;2.07;100.00;100017.59;5028902;28;20034;-75
2024/01/18 03:59:09;;;;;;;29.35;16.67;;;;;;;2.17;100.00;100035.19;5030295;28;20095;-77
2024/01/18 04:01:34;;;;;;;25.02;16.02;;;;;;;2.10;100.00;100030.50;5029859;28;20036;-77
2024/01/18 04:04:00;;;;;;;27.35;16.15;;;;;;;2.15;100.00;100061.34;5029838;28;20139;-77
2024/01/18 04:06:25;;;;;;;25.50;16.10;;;;;;;1.68;100.00;99964.19;5030514;28;20029;-77
2024/01/18 04:08:51;;;;;;;26.52;17.52;;;;;;;2.02;100.00;100024.94;5029898;28;20029;-77
2024/01/18 04:11:17;;;;;;;24.02;15.45;;;;;;;2.13;100.00;100040.00;5022366;28;20051;-78
2024/01/18 04:13:42;;;;;;;25.85;15.80;;;;;;;2.08;100.00;100029.50;5030057;28;20025;-77
2024/01/18 04:16:08;;;;;;;30.80;16.67;;;;;;;2.09;100.00;100038.91;5028977;28;20396;-75
2024/01/18 04:18:34;;;;;;;29.90;18.70;;;;;;;2.12;100.00;100056.94;5011011;28;20420;-77
2024/01/18 04:21:00;;;;;;;29.35;17.42;;;;;;;1.98;100.00;100027.16;5029714;28;20033;-79
2024/01/18 04:23:25;;;;;;;26.10;17.10;;;;;;;2.22;100.00;100051.66;5029970;28;20044;-76
2024/01/18 04:25:52;;;;;;;29.77;17.33;;;;;;;2.22;100.00;100048.25;5026614;28;20419;-77
2024/01/18 04:28:21;;;;;;;27.38;17.75;;;;;;;2.21;100.00;100047.34;5029565;28;20037;-76
2024/01/18 04:30:47;;;;;;;27.20;18.70;;;;;;;2.30;100.00;100051.25;5028888;28;20373;-77
2024/01/18 04:33:12;;;;;;;29.77;18.45;;;;;;;2.05;100.00;100017.47;5029096;28;20039;-75
2024/01/18 04:35:39;;;;;;;30.90;18.65;;;;;;;1.92;100.00;99995.44;5021848;28;20049;-76
2024/01/18 04:38:07;;;;;;;28.15;18.58;;;;;;;2.24;100.00;100049.19;5026628;28;20040;-78
2024/01/18 04:40:33;;;;;;;32.03;19.15;;;;;;;2.07;100.00;100033.72;5019844;28;20107;-78
2024/01/18 04:42:59;;;;;;;27.17;17.45;;;;;;;2.20;100.00;100040.47;5023579;28;20053;-77
2024/01/18 04:45:25;;;;;;;29.85;17.52;;;;;;;2.13;100.00;100043.44;5027305;28;20037;-77
2024/01/18 04:48:11;;;;;;;30.35;18.02;;;;;;;2.01;100.00;100040.09;5046639;28;20041;-76
2024/01/18 04:50:36;;;;;;;28.95;19.02;;;;;;;1.88;100.00;100021.50;5046786;28;20060;-77
2024/01/18 04:53:02;;;;;;;40.60;27.17;;;;;;;1.85;100.00;100040.78;5029824;28;20040;-77
2024/01/18 04:55:28;;;;;;;32.00;20.60;;;;;;;1.84;100.00;100032.25;5046866;28;20041;-76
2024/01/18 04:57:53;;;;;;;29.27;17.08;;;;;;;1.69;100.00;99993.09;5046590;28;20511;-77
2024/01/18 05:00:19;;;;;;;27.33;18.20;;;;;;;1.92;100.00;100037.84;5039119;28;20131;-77
2024/01/18 05:02:45;;;;;;;29.45;18.33;;;;;;;1.96;100.00;100038.91;5042003;28;20033;-78
2024/01/18 05:05:13;;;;;;;28.60;18.17;;;;;;;1.54;100.00;99962.44;5046479;28;20033;-76
2024/01/18 05:07:42;;;;;;;31.10;19.50;;;;;;;2.00;100.00;100035.78;5004191;28;20098;-78
2024/01/18 05:10:09;;;;;;;32.15;18.85;;;;;;;2.05;100.00;100034.41;5006972;28;20073;-77
2024/01/18 05:12:35;;;;;;;33.08;21.33;;;;;;;2.03;100.00;100020.69;5006412;28;20112;-77
2024/01/18 05:15:01;;;;;;;31.50;21.30;;;;;;;2.16;100.00;100030.03;5004302;28;20523;-75
2024/01/18 05:17:36;;;;;;;33.33;21.88;;;;;;;2.19;100.00;100032.75;5006790;28;20479;-75
2024/01/18 05:20:06;;;;;;;36.85;22.70;;;;;;;2.22;100.00;100026.19;5006504;28;20523;-76
2024/01/18 05:22:32;;;;;;;37.42;22.73;;;;;;;2.10;100.00;100008.44;4967857;28;20053;-75
2024/01/18 05:24:59;;;;;;;39.75;23.92;;;;;;;1.41;100.00;99880.25;4963203;28;20047;-75
2024/01/18 05:27:28;;;;;;;41.10;24.40;;;;;;;2.30;100.00;100025.78;4948803;29;20146;-76
2024/01/18 05:29:53;;;;;;;37.83;23.30;;;;;;;1.95;100.00;99971.84;4946772;29;20035;-75
2024/01/18 05:32:21;;;;;;;36.92;21.98;;;;;;;2.20;100.00;100015.00;4948289;28;20039;-76
2024/01/18 05:34:51;;;;;;;40.13;22.10;;;;;;;2.28;100.00;100025.69;4948632;28;20031;-76
2024/01/18 05:37:17;;;;;;;32.33;20.88;;;;;;;2.30;100.00;100028.34;4948505;29;20058;-78
2024/01/18 05:39:44;;;;;;;32.58;20.67;;;;;;;2.15;100.00;99998.56;4945489;28;20122;-76
2024/01/18 05:42:09;;;;;;;35.17;21.55;;;;;;;2.27;100.00;100008.66;4938161;29;20429;-75
2024/01/18 05:44:35;;;;;;;31.48;21.15;;;;;;;2.28;100.00;100001.88;4943603;29;20036;-75
2024/01/18 05:47:01;;;;;;;33.10;21.88;;;;;;;2.05;100.00;99952.94;4940959;29;20047;-75
2024/01/18 05:49:27;;;;;;;32.55;21.25;;;;;;;1.87;100.00;99917.00;4952858;29;20051;-77
2024/01/18 05:51:52;;;;;;;34.00;21.55;;;;;;;2.21;100.00;99993.84;4951905;29;20082;-78
2024/01/18 05:54:18;;;;;;;33.08;22.27;;;;;;;2.29;100.00;99999.41;4985005;28;20046;-79
2024/01/18 05:56:46;;;;;;;29.95;20.05;;;;;;;2.01;100.00;99956.09;4990984;28;20034;-78
2024/01/18 05:59:11;;;;;;;34.35;21.23;;;;;;;2.03;100.00;99974.88;5032961;28;20038;-77
2024/01/18 06:01:37;;;;;;;32.85;19.20;;;;;;;2.04;100.00;99979.19;5050015;28;20120;-78
2024/01/18 06:04:03;;;;;;;34.75;20.98;;;;;;;1.80;100.00;99933.56;5050294;28;20040;-81
2024/01/18 06:06:28;;;;;;;29.55;20.55;;;;;;;2.20;100.00;99996.31;5048142;28;20126;-78
2024/01/18 06:08:54;;;;;;;32.25;20.92;;;;;;;1.88;100.00;99926.41;5049915;28;20633;-78
2024/01/18 06:11:19;;;;;;;30.88;20.77;;;;;;;2.30;100.00;99992.69;5028751;28;20047;-80
2024/01/18 06:13:45;;;;;;;36.38;23.38;;;;;;;2.35;100.00;99993.84;5050411;28;20130;-78
2024/01/18 06:16:11;;;;;;;39.63;26.55;;;;;;;2.40;100.00;99988.22;5049897;28;21150;-77
2024/01/18 06:18:38;;;;;;;45.90;29.52;;;;;;;2.44;100.00;100002.03;5040984;28;20168;-78
2024/01/18 06:21:12;;;;;;;43.42;27.65;;;;;;;2.39;100.00;99976.31;5049610;28;20044;-78
2024/01/18 06:23:39;;;;;;;44.70;29.92;;;;;;;2.29;100.00;99933.19;5020695;28;20523;-77
2024/01/18 06:26:11;;;;;;;40.88;27.52;;;;;;;2.22;100.00;99919.22;5023667;28;20407;-80
2024/01/18 06:28:40;;;;;;;41.95;27.33;;;;;;;2.56;100.00;99963.69;5030788;28;20098;-78
2024/01/18 06:31:06;;;;;;;44.08;28.30;;;;;;;2.72;100.00;99983.34;5043771;28;20542;-82
2024/01/18 06:33:31;;;;;;;41.67;27.45;;;;;;;2.72;100.00;99970.63;5027622;28;20182;-79
2024/01/18 06:35:57;;;;;;;39.75;26.42;;;;;;;2.69;100.00;99973.84;5027916;28;20424;-78
2024/01/18 06:38:22;;;;;;;41.13;25.70;;;;;;;2.31;100.00;99888.31;5030995;28;20025;-79
2024/01/18 06:40:48;;;;;;;49.00;29.40;;;;;;;2.69;100.00;99968.75;5032408;28;20175;-78
2024/01/18 06:43:14;;;;;;;44.42;27.48;;;;;;;2.60;100.00;99986.03;5030844;28;20029;-78
2024/01/18 06:45:41;;;;;;;44.80;25.27;;;;;;;2.54;100.00;99989.09;5032653;28;20025;-79
2024/01/18 06:48:07;;;;;;;43.38;26.02;;;;;;;2.47;100.00;99993.69;5030977;28;20032;-78
2024/01/18 06:50:33;;;;;;;38.00;25.15;;;;;;;2.16;100.00;99958.72;5033284;28;20048;-78
2024/01/18 06:52:59;;;;;;;40.10;24.00;;;;;;;2.27;100.00;100001.00;5031796;28;20488;-77
2024/01/18 06:55:31;;;;;;;39.35;24.95;;;;;;;2.26;100.00;99994.16;5032072;28;20536;-78
2024/01/18 06:58:01;;;;;;;46.95;27.05;;;;;;;2.28;100.00;99984.94;5029959;28;20427;-79
2024/01/18 07:00:27;;;;;;;44.90;30.30;;;;;;;2.28;100.00;99977.31;5032368;28;20484;-78
2024/01/18 07:02:53;;;;;;;43.13;27.60;;;;;;;2.34;100.00;99972.56;5030146;28;20029;-78
2024/01/18 07:05:19;;;;;;;45.63;26.83;;;;;;;2.37;100.00;99969.34;5031622;28;20064;-79
2024/01/18 07:07:44;;;;;;;52.47;34.92;;;;;;;2.00;100.00;99904.28;5030231;28;20064;-79
2024/01/18 07:10:10;;;;;;;55.25;33.20;;;;;;;2.56;100.00;99976.44;5031002;28;20045;-77
2024/01/18 07:12:36;;;;;;;45.83;29.20;;;;;;;2.54;100.00;99972.91;5031670;28;20037;-78
2024/01/18 07:15:03;;;;;;;52.05;28.77;;;;;;;2.54;100.00;99972.91;5030018;28;20040;-79
2024/01/18 07:17:29;;;;;;;50.13;30.02;;;;;;;2.20;100.00;99907.19;5018464;28;20419;-78
2024/01/18 07:19:58;;;;;;;46.28;28.42;;;;;;;2.55;100.00;99967.03;5030800;28;20084;-78
2024/01/18 07:22:26;;;;;;;45.38;29.40;;;;;;;2.48;100.00;99954.69;5029958;28;20033;-78
2024/01/18 07:24:52;;;;;;;46.85;28.45;;;;;;;2.61;100.00;99964.84;5031222;28;20037;-77
2024/01/18 07:27:18;;;;;;;62.45;31.70;;;;;;;2.57;100.00;99945.09;5029944;28;20492;-80
2024/01/18 07:29:43;;;;;;;47.97;28.48;;;;;;;2.72;100.00;99962.97;5030933;28;20059;-78
2024/01/18 07:32:09;;;;;;;46.88;29.20;;;;;;;2.64;100.00;99949.78;5032314;28;20033;-77
2024/01/18 07:34:36;;;;;;;46.42;28.08;;;;;;;2.80;100.00;99943.88;5031028;28;20029;-77
2024/01/18 07:37:02;;;;;;;47.55;29.25;;;;;;;2.72;100.00;99933.25;5029697;28;20029;-78
2024/01/18 07:39:27;;;;;;;58.63;33.15;;;;;;;2.68;100.00;99927.88;5031177;28;20629;-77
2024/01/18 07:41:53;;;;;;;50.58;31.30;;;;;;;2.58;100.00;99922.22;5030880;28;20033;-77
2024/01/18 07:44:19;;;;;;;46.55;30.38;;;;;;;1.75;100.00;99785.69;5029326;28;20087;-80
2024/01/18 07:46:45;;;;;;;42.30;27.42;;;;;;;2.65;100.00;99914.97;5030569;28;20025;-77
2024/01/18 07:49:10;;;;;;;51.70;33.85;;;;;;;2.84;100.00;99927.13;5030922;28;20116;-77
2024/01/18 07:51:36;;;;;;;62.38;41.22;;;;;;;2.49;100.00;99854.56;5026309;28;20060;-78
2024/01/18 07:54:03;;;;;;;61.03;37.10;;;;;;;2.90;100.00;99919.81;5027419;28;20496;-80
2024/01/18 07:56:28;;;;;;;49.58;34.92;;;;;;;2.94;100.00;99924.34;5027192;28;20041;-78
2024/01/18 07:58:54;;;;;;;52.67;35.33;;;;;;;2.92;100.00;99910.59;5027292;28;20574;-77
2024/01/18 08:01:19;;;;;;;48.70;32.97;;;;;;;2.52;100.00;99826.72;5028906;28;20048;-78
2024/01/18 08:03:45;;;;;;;49.83;33.78;;;;;;;2.98;100.00;99898.22;5008912;28;20184;-78
2024/01/18 08:06:11;;;;;;;51.10;35.35;;;;;;;3.15;100.00;99917.03;5022987;28;20115;-77
2024/01/18 08:08:43;;;;;;;55.10;36.90;;;;;;;3.16;100.00;99921.34;5030091;28;20038;-77
2024/01/18 08:11:10;;;;;;;53.67;34.72;;;;;;;3.18;100.00;99932.53;5019817;28;20190;-76
2024/01/18 08:13:36;;;;;;;51.03;33.33;;;;;;;2.93;100.00;99899.63;5029751;28;20096;-77
2024/01/18 08:16:01;;;;;;;53.25;36.78;;;;;;;3.14;100.00;99927.16;5030797;28;20475;-77
2024/01/18 08:18:27;;;;;;;57.58;36.05;;;;;;;3.11;100.00;99911.69;5030116;28;20409;-77
2024/01/18 08:20:52;;;;;;;51.28;32.00;;;;;;;3.08;100.00;99892.84;5030031;28;20472;-78
2024/01/18 08:23:18;;;;;;;54.55;34.47;;;;;;;3.23;100.00;99903.03;5030611;28;20045;-76
2024/01/18 08:25:44;;;;;;;49.10;31.58;;;;;;;3.26;100.00;99925.31;5029710;28;20046;-77
2024/01/18 08:28:13;;;;;;;47.70;30.42;;;;;;;3.37;100.00;99926.78;5029963;28;20033;-77
2024/01/18 08:30:42;;;;;;;47.72;32.25;;;;;;;2.85;100.00;99826.91;5030243;28;20040;-77
2024/01/18 08:33:10;;;;;;;50.60;31.50;;;;;;;3.38;100.00;99918.34;5030115;28;20030;-75
2024/01/18 08:35:37;;;;;;;43.40;30.23;;;;;;;3.15;100.00;99872.78;5030891;28;20272;-77
2024/01/18 08:38:04;;;;;;;44.05;30.38;;;;;;;3.40;100.00;99908.22;5029782;28;20482;-77
2024/01/18 08:40:30;;;;;;;43.88;29.67;;;;;;;3.64;100.00;99926.59;5029750;28;20037;-80
2024/01/18 08:42:56;;;;;;;42.25;29.08;;;;;;;3.63;100.00;99912.06;5029917;28;20108;-76
2024/01/18 08:45:23;;;;;;;47.65;30.13;;;;;;;3.62;100.00;99891.56;5030500;28;20037;-79
2024/01/18 08:47:49;;;;;;;45.83;30.23;;;;;;;3.47;100.00;99866.09;5028590;28;20116;-77
2024/01/18 08:50:15;;;;;;;44.65;30.25;;;;;;;3.80;100.00;99917.22;5030217;28;20044;-77
2024/01/18 08:52:41;;;;;;;41.20;28.10;;;;;;;3.55;100.00;99869.91;5025898;28;20030;-77
2024/01/18 08:55:08;;;;;;;42.53;27.13;;;;;;;4.00;100.00;99920.88;5027758;28;20546;-77
2024/01/18 08:57:33;;;;;;;38.28;25.17;;;;;;;3.83;100.00;99917.41;5026720;28;20045;-78
2024/01/18 08:59:59;;;;;;;42.45;26.60;;;;;;;3.87;100.00;99909.97;5017447;28;20534;-78
2024/01/18 09:02:25;;;;;;;43.60;28.70;;;;;;;3.95;100.00;99882.34;5025232;28;20033;-78
2024/01/18 09:04:51;;;;;;;44.97;28.15;;;;;;;4.19;100.00;99895.53;5027614;28;20037;-79
2024/01/18 09:07:16;;;;;;;45.45;28.92;;;;;;;4.45;100.00;99892.56;5024595;28;20048;-79
2024/01/18 09:09:44;;;;;;;41.85;27.08;;;;;;;4.19;100.00;99810.34;5028210;28;20107;-79
2024/01/18 09:12:10;;;;;;;46.40;29.75;;;;;;;4.67;100.00;99859.66;5025509;28;20022;-75
2024/01/18 09:14:36;;;;;;;58.10;37.05;;;;;;;4.72;100.00;99874.34;5026411;28;20065;-75
2024/01/18 09:17:01;;;;;;;43.65;26.77;;;;;;;4.80;100.00;99873.06;5024224;28;20492;-76
2024/01/18 09:19:30;;;;;;;40.28;27.20;;;;;;;4.76;100.00;99851.56;5019281;28;20034;-78
2024/01/18 09:21:57;;;;;;;39.72;26.65;;;;;;;4.55;100.00;99797.69;5021670;28;20087;-79
2024/01/18 09:24:23;;;;;;;42.03;25.33;;;;;;;4.78;100.00;99828.63;5033381;28;20048;-79
2024/01/18 09:26:49;;;;;;;40.67;25.10;;;;;;;4.27;100.00;99739.19;5031976;28;20553;-79
2024/01/18 09:29:15;;;;;;;40.15;25.67;;;;;;;4.66;100.00;99811.88;5033284;28;20029;-79
2024/01/18 09:31:40;;;;;;;41.65;24.75;;;;;;;4.80;100.00;99827.03;5033979;28;20065;-77
2024/01/18 09:34:06;;;;;;;33.40;23.90;;;;;;;4.86;100.00;99840.13;5032123;28;20506;-78
2024/01/18 09:36:32;;;;;;;38.45;24.98;;;;;;;4.64;100.00;99790.47;5027630;28;20035;-78
2024/01/18 09:38:57;;;;;;;38.42;25.20;;;;;;;4.94;100.00;99832.84;5032511;28;20072;-80
2024/01/18 09:41:26;;;;;;;34.70;22.67;;;;;;;4.89;100.00;99803.59;5032409;28;20041;-78
2024/01/18 09:43:58;;;;;;;36.30;23.23;;;;;;;5.02;100.00;99819.63;5014328;28;20048;-80
2024/01/18 09:46:23;;;;;;;36.35;23.67;;;;;;;4.96;100.00;99809.06;5032598;28;20530;-78
2024/01/18 09:48:49;;;;;;;34.00;23.40;;;;;;;4.88;100.00;99784.78;5033377;28;20033;-78
2024/01/18 09:51:15;;;;;;;32.15;21.98;;;;;;;5.09;100.00;99804.56;5032948;28;20029;-78
2024/01/18 09:53:44;;;;;;;31.20;21.55;;;;;;;4.90;100.00;99777.19;5032753;28;20038;-77
2024/01/18 09:56:18;;;;;;;;;;;;;;;4.98;100.00;99776.75;5033829;28;20068;-81
2024/01/18 09:58:43;;;;;;;35.17;22.02;;;;;;;4.57;100.00;99716.81;5033164;28;19989;-77
2024/01/18 10:01:17;;;;;;;35.65;23.02;;;;;;;4.84;100.00;99734.31;5032713;28;20484;-79
2024/01/18 10:03:42;;;;;;;38.42;23.27;;;;;;;4.77;100.00;99696.47;5033186;28;20120;-78
2024/01/18 10:06:08;;;;;;;37.45;21.65;;;;;;;4.69;100.00;99661.16;5032865;28;20460;-81
2024/01/18 10:08:33;;;;;;;34.83;22.45;;;;;;;4.48;100.00;99657.59;5033022;28;20025;-77
2024/01/18 10:10:59;;;;;;;39.88;24.40;;;;;;;4.73;100.00;99697.97;5030464;28;20033;-77
2024/01/18 10:13:26;;;;;;;53.05;32.90;;;;;;;4.72;100.00;99649.34;5032771;28;20025;-78
2024/01/18 10:15:52;;;;;;;36.20;22.23;;;;;;;4.72;100.00;99642.53;5032519;28;20405;-81
2024/01/18 10:18:18;;;;;;;39.08;25.70;;;;;;;4.69;100.00;99662.84;5032475;28;20111;-77
2024/01/18 10:20:46;;;;;;;39.42;24.25;;;;;;;4.72;100.00;99686.00;5032699;28;20029;-78
2024/01/18 10:23:12;;;;;;;34.63;23.17;;;;;;;4.83;100.00;99722.31;5032741;28;20454;-79
2024/01/18 10:25:39;;;;;;;35.88;23.90;;;;;;;4.58;100.00;99687.03;5032941;28;20120;-78
2024/01/18 10:28:05;;;;;;;34.88;23.30;;;;;;;5.09;100.00;99748.28;5032685;28;20116;-78
2024/01/18 10:30:33;;;;;;;34.10;24.63;;;;;;;4.99;100.00;99726.50;5032271;28;20124;-78
2024/01/18 10:33:00;;;;;;;40.55;24.98;;;;;;;5.22;100.00;99749.72;5031112;28;20057;-77
2024/01/18 10:35:28;;;;;;;39.42;25.45;;;;;;;5.18;100.00;99724.00;5032963;28;20025;-77
2024/01/18 10:38:00;;;;;;;36.05;25.10;;;;;;;5.25;100.00;99745.63;5029707;28;20485;-78
2024/01/18 10:40:26;;;;;;;36.40;22.80;;;;;;;5.10;100.00;99696.31;5032064;28;20507;-78
2024/01/18 10:42:52;;;;;;;33.33;23.17;;;;;;;4.92;100.00;99673.28;5032816;28;20038;-78
2024/01/18 10:45:18;;;;;;;33.88;23.33;;;;;;;5.26;100.00;99732.03;5032001;28;20038;-79
2024/01/18 10:47:44;;;;;;;37.97;23.30;;;;;;;5.26;100.00;99719.22;5031913;28;20492;-77
2024/01/18 10:50:11;;;;;;;37.33;23.35;;;;;;;4.92;100.00;99642.59;5032611;28;20507;-77
2024/01/18 10:52:40;;;;;;;34.90;22.90;;;;;;;5.18;100.00;99687.28;5030599;28;20491;-78
2024/01/18 10:55:12;;;;;;;35.40;23.63;;;;;;;5.31;100.00;99694.72;5031960;28;20033;-81
2024/01/18 10:57:39;;;;;;;38.00;24.52;;;;;;;5.21;100.00;99649.06;5031762;28;20041;-78
2024/01/18 11:00:08;;;;;;;37.85;24.85;;;;;;;5.14;100.00;99624.84;5032890;28;20454;-77
2024/01/18 11:02:40;;;;;;;42.63;25.58;;;;;;;4.67;100.00;99562.19;5031675;28;20033;-77
2024/01/18 11:05:09;;;;;;;39.50;26.45;;;;;;;5.05;100.00;99654.25;5031541;28;20044;-76
2024/01/18 11:07:39;;;;;;;;;;;;;;;5.19;100.00;99682.22;5028246;28;20087;-76
2024/01/18 11:10:10;;;;;;;37.50;22.65;;;;;;;5.12;100.00;99663.97;5031557;28;20013;-75
2024/01/18 11:12:38;;;;;;;37.63;24.10;;;;;;;5.17;100.00;99659.94;5030061;28;20049;-77